sensor_id;sensor_type;location;lat;lon;timestamp;pressure;altitude;pressure_sealevel;temperature;humidity
19510;BME280;9896;42.486;26.506;2022-07-11T00:02:08;99470.94;;;18.63;72.29
19510;BME280;9896;42.486;26.506;2022-07-11T00:04:34;99468.44;;;18.51;72.16
19510;BME280;9896;42.486;26.506;2022-07-11T00:07:01;99469.75;;;18.38;71.73
19510;BME280;9896;42.486;26.506;2022-07-11T00:09:27;99467.09;;;18.48;72.69
19510;BME280;9896;42.486;26.506;2022-07-11T00:11:53;99465.69;;;18.36;74.33
19510;BME280;9896;42.486;26.506;2022-07-11T00:14:19;99451.53;;;18.19;74.90
19510;BME280;9896;42.486;26.506;2022-07-11T00:16:47;99441.72;;;18.07;75.83
19510;BME280;9896;42.486;26.506;2022-07-11T00:19:12;99462.09;;;18.05;76.07
19510;BME280;9896;42.486;26.506;2022-07-11T00:21:38;99454.44;;;17.92;76.73
19510;BME280;9896;42.486;26.506;2022-07-11T00:24:04;99453.88;;;17.95;76.42
19510;BME280;9896;42.486;26.506;2022-07-11T00:26:30;99453.31;;;17.88;76.30
19510;BME280;9896;42.486;26.506;2022-07-11T00:28:56;99459.03;;;17.91;76.06
19510;BME280;9896;42.486;26.506;2022-07-11T00:31:21;99457.44;;;18.00;74.68
19510;BME280;9896;42.486;26.506;2022-07-11T00:33:47;99455.28;;;18.07;74.72
19510;BME280;9896;42.486;26.506;2022-07-11T00:36:13;99455.34;;;18.18;73.01
19510;BME280;9896;42.486;26.506;2022-07-11T00:38:38;99457.53;;;18.26;71.21
19510;BME280;9896;42.486;26.506;2022-07-11T00:41:04;99456.72;;;18.30;70.51
19510;BME280;9896;42.486;26.506;2022-07-11T00:43:34;99462.41;;;18.29;70.51
19510;BME280;9896;42.486;26.506;2022-07-11T00:46:01;99456.47;;;18.37;69.57
19510;BME280;9896;42.486;26.506;2022-07-11T00:48:27;99453.47;;;18.38;69.13
19510;BME280;9896;42.486;26.506;2022-07-11T00:50:53;99458.66;;;18.40;68.30
19510;BME280;9896;42.486;26.506;2022-07-11T00:53:19;99455.44;;;18.53;66.79
19510;BME280;9896;42.486;26.506;2022-07-11T00:55:46;99461.16;;;18.72;66.31
19510;BME280;9896;42.486;26.506;2022-07-11T00:58:13;99465.81;;;19.01;62.67
19510;BME280;9896;42.486;26.506;2022-07-11T01:00:41;99458.47;;;19.27;62.47
19510;BME280;9896;42.486;26.506;2022-07-11T01:03:07;99463.91;;;19.22;63.17
19510;BME280;9896;42.486;26.506;2022-07-11T01:05:32;99462.53;;;19.45;61.16
19510;BME280;9896;42.486;26.506;2022-07-11T01:07:58;99456.28;;;19.24;61.88
19510;BME280;9896;42.486;26.506;2022-07-11T01:10:24;99453.25;;;19.41;61.54
19510;BME280;9896;42.486;26.506;2022-07-11T01:12:49;99465.53;;;19.13;63.16
19510;BME280;9896;42.486;26.506;2022-07-11T01:15:15;99473.69;;;19.03;63.26
19510;BME280;9896;42.486;26.506;2022-07-11T01:17:42;99468.25;;;18.88;62.99
19510;BME280;9896;42.486;26.506;2022-07-11T01:20:08;99479.41;;;18.86;64.60
19510;BME280;9896;42.486;26.506;2022-07-11T01:22:46;99470.69;;;18.79;63.77
19510;BME280;9896;42.486;26.506;2022-07-11T01:25:16;99472.06;;;18.82;63.24
19510;BME280;9896;42.486;26.506;2022-07-11T01:28:06;99480.19;;;18.62;64.77
19510;BME280;9896;42.486;26.506;2022-07-11T01:30:32;99474.47;;;18.63;63.40
19510;BME280;9896;42.486;26.506;2022-07-11T01:32:58;99486.09;;;18.48;65.07
19510;BME280;9896;42.486;26.506;2022-07-11T01:35:27;99486.91;;;18.49;64.50
19510;BME280;9896;42.486;26.506;2022-07-11T01:37:52;99490.16;;;18.41;64.73
19510;BME280;9896;42.486;26.506;2022-07-11T01:40:18;99492.03;;;18.40;65.57
19510;BME280;9896;42.486;26.506;2022-07-11T01:42:45;99493.91;;;18.35;65.65
19510;BME280;9896;42.486;26.506;2022-07-11T01:45:11;99494.94;;;18.14;66.56
19510;BME280;9896;42.486;26.506;2022-07-11T01:47:38;99497.25;;;17.90;67.97
19510;BME280;9896;42.486;26.506;2022-07-11T01:50:04;99493.13;;;17.72;67.99
19510;BME280;9896;42.486;26.506;2022-07-11T01:52:30;99499.59;;;17.71;68.09
19510;BME280;9896;42.486;26.506;2022-07-11T01:54:56;99499.81;;;17.59;68.96
19510;BME280;9896;42.486;26.506;2022-07-11T01:57:21;99503.34;;;17.60;69.24
19510;BME280;9896;42.486;26.506;2022-07-11T01:59:47;99502.53;;;17.59;68.97
19510;BME280;9896;42.486;26.506;2022-07-11T02:02:13;99502.00;;;17.62;69.42
19510;BME280;9896;42.486;26.506;2022-07-11T02:04:39;99506.38;;;17.69;70.30
19510;BME280;9896;42.486;26.506;2022-07-11T02:07:05;99497.16;;;17.64;69.60
19510;BME280;9896;42.486;26.506;2022-07-11T02:09:31;99495.16;;;17.55;70.28
19510;BME280;9896;42.486;26.506;2022-07-11T02:11:56;99495.63;;;17.47;71.16
19510;BME280;9896;42.486;26.506;2022-07-11T02:14:22;99494.31;;;17.54;70.85
19510;BME280;9896;42.486;26.506;2022-07-11T02:16:47;99490.25;;;17.52;71.46
19510;BME280;9896;42.486;26.506;2022-07-11T02:19:13;99507.13;;;17.59;71.64
19510;BME280;9896;42.486;26.506;2022-07-11T02:21:38;99500.88;;;17.58;70.93
19510;BME280;9896;42.486;26.506;2022-07-11T02:24:04;99499.25;;;17.57;70.85
19510;BME280;9896;42.486;26.506;2022-07-11T02:26:30;99506.88;;;17.65;69.95
19510;BME280;9896;42.486;26.506;2022-07-11T02:28:56;99510.41;;;17.66;69.98
19510;BME280;9896;42.486;26.506;2022-07-11T02:31:21;99514.78;;;17.35;71.92
19510;BME280;9896;42.486;26.506;2022-07-11T02:33:47;99511.22;;;17.30;72.26
19510;BME280;9896;42.486;26.506;2022-07-11T02:36:13;99524.72;;;17.19;73.29
19510;BME280;9896;42.486;26.506;2022-07-11T02:38:38;99520.06;;;17.15;73.56
19510;BME280;9896;42.486;26.506;2022-07-11T02:41:04;99528.38;;;17.08;74.31
19510;BME280;9896;42.486;26.506;2022-07-11T02:43:29;99532.00;;;17.19;73.82
19510;BME280;9896;42.486;26.506;2022-07-11T02:45:55;99529.53;;;16.86;75.01
19510;BME280;9896;42.486;26.506;2022-07-11T02:48:21;99529.06;;;16.94;72.22
19510;BME280;9896;42.486;26.506;2022-07-11T02:50:47;99532.59;;;16.94;71.57
19510;BME280;9896;42.486;26.506;2022-07-11T02:53:13;99527.88;;;17.11;68.26
19510;BME280;9896;42.486;26.506;2022-07-11T02:55:39;99526.94;;;17.59;65.90
19510;BME280;9896;42.486;26.506;2022-07-11T02:58:04;99527.25;;;17.68;64.60
19510;BME280;9896;42.486;26.506;2022-07-11T03:00:30;99514.34;;;17.48;70.09
19510;BME280;9896;42.486;26.506;2022-07-11T03:02:56;99534.13;;;17.49;67.56
19510;BME280;9896;42.486;26.506;2022-07-11T03:05:22;99529.34;;;17.61;65.78
19510;BME280;9896;42.486;26.506;2022-07-11T03:07:47;99529.34;;;17.61;64.93
19510;BME280;9896;42.486;26.506;2022-07-11T03:10:14;99519.66;;;17.33;67.05
19510;BME280;9896;42.486;26.506;2022-07-11T03:12:39;99530.22;;;17.67;65.74
19510;BME280;9896;42.486;26.506;2022-07-11T03:15:05;99529.44;;;17.71;66.83
19510;BME280;9896;42.486;26.506;2022-07-11T03:17:31;99535.94;;;17.70;65.30
19510;BME280;9896;42.486;26.506;2022-07-11T03:19:57;99543.25;;;17.70;66.51
19510;BME280;9896;42.486;26.506;2022-07-11T03:22:22;99548.19;;;17.78;65.87
19510;BME280;9896;42.486;26.506;2022-07-11T03:24:48;99552.16;;;17.60;68.45
19510;BME280;9896;42.486;26.506;2022-07-11T03:27:16;99555.31;;;17.57;69.13
19510;BME280;9896;42.486;26.506;2022-07-11T03:29:42;99554.03;;;17.59;69.23
19510;BME280;9896;42.486;26.506;2022-07-11T03:32:08;99556.19;;;17.57;69.36
19510;BME280;9896;42.486;26.506;2022-07-11T03:34:34;99563.44;;;17.52;69.54
19510;BME280;9896;42.486;26.506;2022-07-11T03:36:59;99567.59;;;17.33;70.34
19510;BME280;9896;42.486;26.506;2022-07-11T03:39:25;99565.84;;;17.16;70.23
19510;BME280;9896;42.486;26.506;2022-07-11T03:41:50;99564.53;;;17.19;69.90
19510;BME280;9896;42.486;26.506;2022-07-11T03:44:16;99570.75;;;17.19;70.08
19510;BME280;9896;42.486;26.506;2022-07-11T03:46:42;99552.56;;;17.15;70.52
19510;BME280;9896;42.486;26.506;2022-07-11T03:49:07;99562.94;;;16.96;71.10
19510;BME280;9896;42.486;26.506;2022-07-11T03:51:33;99570.00;;;16.70;71.31
19510;BME280;9896;42.486;26.506;2022-07-11T03:53:59;99572.94;;;16.91;71.48
19510;BME280;9896;42.486;26.506;2022-07-11T03:56:25;99573.78;;;16.96;70.88
19510;BME280;9896;42.486;26.506;2022-07-11T03:58:51;99583.78;;;16.96;69.88
19510;BME280;9896;42.486;26.506;2022-07-11T04:01:17;99587.63;;;17.00;69.52
19510;BME280;9896;42.486;26.506;2022-07-11T04:03:45;99582.56;;;17.08;68.37
19510;BME280;9896;42.486;26.506;2022-07-11T04:06:11;99576.78;;;17.27;66.40
19510;BME280;9896;42.486;26.506;2022-07-11T04:08:37;99580.66;;;17.36;67.41
19510;BME280;9896;42.486;26.506;2022-07-11T04:11:02;99585.63;;;17.49;67.18
19510;BME280;9896;42.486;26.506;2022-07-11T04:13:29;99578.16;;;17.61;66.19
19510;BME280;9896;42.486;26.506;2022-07-11T04:15:56;99577.38;;;17.60;66.77
19510;BME280;9896;42.486;26.506;2022-07-11T04:18:21;99580.53;;;17.89;66.13
19510;BME280;9896;42.486;26.506;2022-07-11T04:20:47;99571.31;;;17.90;65.49
19510;BME280;9896;42.486;26.506;2022-07-11T04:23:15;99571.25;;;18.27;64.40
19510;BME280;9896;42.486;26.506;2022-07-11T04:25:40;99579.47;;;18.47;63.07
19510;BME280;9896;42.486;26.506;2022-07-11T04:28:06;99588.31;;;18.80;61.00
19510;BME280;9896;42.486;26.506;2022-07-11T04:30:31;99578.03;;;18.97;58.81
19510;BME280;9896;42.486;26.506;2022-07-11T04:32:58;99586.72;;;19.04;60.43
19510;BME280;9896;42.486;26.506;2022-07-11T04:35:24;99584.31;;;19.18;60.54
19510;BME280;9896;42.486;26.506;2022-07-11T04:37:49;99586.47;;;19.21;59.27
19510;BME280;9896;42.486;26.506;2022-07-11T04:40:15;99591.41;;;19.34;59.25
19510;BME280;9896;42.486;26.506;2022-07-11T04:42:42;99591.16;;;19.51;58.86
19510;BME280;9896;42.486;26.506;2022-07-11T04:45:08;99587.88;;;19.54;60.84
19510;BME280;9896;42.486;26.506;2022-07-11T04:47:34;99600.13;;;19.76;61.72
19510;BME280;9896;42.486;26.506;2022-07-11T04:50:00;99602.00;;;19.91;59.00
19510;BME280;9896;42.486;26.506;2022-07-11T04:52:25;99601.75;;;19.77;60.55
19510;BME280;9896;42.486;26.506;2022-07-11T04:54:52;99603.38;;;19.78;59.70
19510;BME280;9896;42.486;26.506;2022-07-11T04:57:18;99606.31;;;20.07;58.63
19510;BME280;9896;42.486;26.506;2022-07-11T04:59:44;99605.50;;;20.17;57.32
19510;BME280;9896;42.486;26.506;2022-07-11T05:02:09;99603.03;;;20.30;57.54
19510;BME280;9896;42.486;26.506;2022-07-11T05:04:35;99593.47;;;20.38;52.47
19510;BME280;9896;42.486;26.506;2022-07-11T05:07:01;99599.41;;;20.55;52.68
19510;BME280;9896;42.486;26.506;2022-07-11T05:09:27;99610.03;;;20.57;53.00
19510;BME280;9896;42.486;26.506;2022-07-11T05:11:52;99597.75;;;20.54;53.98
19510;BME280;9896;42.486;26.506;2022-07-11T05:14:17;99600.97;;;20.71;54.19
19510;BME280;9896;42.486;26.506;2022-07-11T05:16:43;99612.09;;;20.75;54.70
19510;BME280;9896;42.486;26.506;2022-07-11T05:19:08;99615.88;;;20.84;53.90
19510;BME280;9896;42.486;26.506;2022-07-11T05:21:34;99618.53;;;20.99;54.80
19510;BME280;9896;42.486;26.506;2022-07-11T05:23:59;99613.38;;;20.98;52.71
19510;BME280;9896;42.486;26.506;2022-07-11T05:26:25;99631.63;;;21.02;51.59
19510;BME280;9896;42.486;26.506;2022-07-11T05:28:50;99623.38;;;21.17;51.35
19510;BME280;9896;42.486;26.506;2022-07-11T05:31:16;99630.75;;;21.12;51.03
19510;BME280;9896;42.486;26.506;2022-07-11T05:33:42;99625.94;;;20.94;49.99
19510;BME280;9896;42.486;26.506;2022-07-11T05:36:07;99637.03;;;21.12;50.48
19510;BME280;9896;42.486;26.506;2022-07-11T05:38:33;99634.47;;;21.31;49.58
19510;BME280;9896;42.486;26.506;2022-07-11T05:40:59;99632.50;;;21.37;49.93
19510;BME280;9896;42.486;26.506;2022-07-11T05:43:25;99632.03;;;21.63;49.78
19510;BME280;9896;42.486;26.506;2022-07-11T05:45:50;99636.69;;;21.63;49.19
19510;BME280;9896;42.486;26.506;2022-07-11T05:48:16;99629.25;;;21.68;48.92
19510;BME280;9896;42.486;26.506;2022-07-11T05:50:41;99624.56;;;21.74;48.32
19510;BME280;9896;42.486;26.506;2022-07-11T05:53:08;99638.16;;;21.84;48.14
19510;BME280;9896;42.486;26.506;2022-07-11T05:55:34;99634.84;;;21.87;47.50
19510;BME280;9896;42.486;26.506;2022-07-11T05:58:00;99637.78;;;21.96;46.87
19510;BME280;9896;42.486;26.506;2022-07-11T06:00:25;99644.94;;;21.92;47.04
19510;BME280;9896;42.486;26.506;2022-07-11T06:02:52;99649.81;;;21.95;47.70
19510;BME280;9896;42.486;26.506;2022-07-11T06:05:18;99653.41;;;22.19;47.31
19510;BME280;9896;42.486;26.506;2022-07-11T06:07:43;99653.81;;;22.02;46.77
19510;BME280;9896;42.486;26.506;2022-07-11T06:10:27;99656.91;;;21.96;47.10
19510;BME280;9896;42.486;26.506;2022-07-11T06:12:53;99651.63;;;22.04;47.20
19510;BME280;9896;42.486;26.506;2022-07-11T06:15:19;99663.53;;;22.42;46.33
19510;BME280;9896;42.486;26.506;2022-07-11T06:17:44;99656.97;;;22.43;46.53
19510;BME280;9896;42.486;26.506;2022-07-11T06:20:10;99653.41;;;22.43;45.01
19510;BME280;9896;42.486;26.506;2022-07-11T06:22:36;99651.72;;;21.94;46.57
19510;BME280;9896;42.486;26.506;2022-07-11T06:25:02;99658.09;;;22.13;46.08
19510;BME280;9896;42.486;26.506;2022-07-11T06:27:27;99657.72;;;22.25;45.63
19510;BME280;9896;42.486;26.506;2022-07-11T06:29:53;99651.91;;;22.32;44.88
19510;BME280;9896;42.486;26.506;2022-07-11T06:32:18;99653.16;;;22.15;45.91
19510;BME280;9896;42.486;26.506;2022-07-11T06:34:44;99658.38;;;22.41;45.14
19510;BME280;9896;42.486;26.506;2022-07-11T06:37:10;99657.13;;;22.28;44.36
19510;BME280;9896;42.486;26.506;2022-07-11T06:39:35;99669.09;;;22.32;44.72
19510;BME280;9896;42.486;26.506;2022-07-11T06:42:01;99658.38;;;22.41;44.45
19510;BME280;9896;42.486;26.506;2022-07-11T06:44:26;99667.53;;;22.50;43.70
19510;BME280;9896;42.486;26.506;2022-07-11T06:46:52;99665.22;;;22.62;44.06
19510;BME280;9896;42.486;26.506;2022-07-11T06:49:17;99666.28;;;22.66;43.85
19510;BME280;9896;42.486;26.506;2022-07-11T06:51:43;99660.50;;;22.91;43.04
19510;BME280;9896;42.486;26.506;2022-07-11T06:54:08;99657.53;;;22.64;43.08
19510;BME280;9896;42.486;26.506;2022-07-11T06:56:34;99672.25;;;22.73;43.69
19510;BME280;9896;42.486;26.506;2022-07-11T06:58:59;99664.66;;;22.89;42.74
19510;BME280;9896;42.486;26.506;2022-07-11T07:01:25;99664.84;;;23.16;42.28
19510;BME280;9896;42.486;26.506;2022-07-11T07:03:51;99662.31;;;23.20;42.46
19510;BME280;9896;42.486;26.506;2022-07-11T07:06:17;99666.97;;;23.19;41.72
19510;BME280;9896;42.486;26.506;2022-07-11T07:08:42;99652.84;;;23.12;41.68
19510;BME280;9896;42.486;26.506;2022-07-11T07:11:08;99662.09;;;23.16;41.51
19510;BME280;9896;42.486;26.506;2022-07-11T07:13:33;99665.75;;;23.30;41.90
19510;BME280;9896;42.486;26.506;2022-07-11T07:15:59;99659.28;;;23.40;40.97
19510;BME280;9896;42.486;26.506;2022-07-11T07:18:24;99646.28;;;23.32;41.29
19510;BME280;9896;42.486;26.506;2022-07-11T07:20:51;99657.31;;;23.27;41.08
19510;BME280;9896;42.486;26.506;2022-07-11T07:23:17;99657.06;;;23.42;41.61
19510;BME280;9896;42.486;26.506;2022-07-11T07:25:43;99653.50;;;23.46;40.92
19510;BME280;9896;42.486;26.506;2022-07-11T07:28:08;99658.63;;;23.29;40.42
19510;BME280;9896;42.486;26.506;2022-07-11T07:30:34;99645.56;;;23.45;39.89
19510;BME280;9896;42.486;26.506;2022-07-11T07:32:59;99639.41;;;23.34;40.09
19510;BME280;9896;42.486;26.506;2022-07-11T07:35:26;99654.63;;;23.40;40.25
19510;BME280;9896;42.486;26.506;2022-07-11T07:37:52;99657.97;;;23.75;40.00
19510;BME280;9896;42.486;26.506;2022-07-11T07:40:17;99660.63;;;23.80;40.46
19510;BME280;9896;42.486;26.506;2022-07-11T07:42:43;99656.19;;;23.84;39.85
19510;BME280;9896;42.486;26.506;2022-07-11T07:45:09;99657.66;;;23.76;40.18
19510;BME280;9896;42.486;26.506;2022-07-11T07:47:35;99663.94;;;23.77;39.68
19510;BME280;9896;42.486;26.506;2022-07-11T07:50:02;99670.09;;;24.01;39.17
19510;BME280;9896;42.486;26.506;2022-07-11T07:52:27;99663.13;;;23.76;39.93
19510;BME280;9896;42.486;26.506;2022-07-11T07:54:53;99673.50;;;24.12;39.24
19510;BME280;9896;42.486;26.506;2022-07-11T07:57:18;99669.47;;;23.90;38.90
19510;BME280;9896;42.486;26.506;2022-07-11T07:59:44;99675.78;;;23.91;39.25
19510;BME280;9896;42.486;26.506;2022-07-11T08:02:09;99664.16;;;24.13;39.24
19510;BME280;9896;42.486;26.506;2022-07-11T08:04:35;99670.22;;;24.28;38.19
19510;BME280;9896;42.486;26.506;2022-07-11T08:07:00;99666.66;;;23.95;38.91
19510;BME280;9896;42.486;26.506;2022-07-11T08:09:26;99681.28;;;24.04;39.77
19510;BME280;9896;42.486;26.506;2022-07-11T08:11:51;99674.16;;;24.22;38.36
19510;BME280;9896;42.486;26.506;2022-07-11T08:14:17;99673.78;;;24.42;38.74
19510;BME280;9896;42.486;26.506;2022-07-11T08:16:43;99683.34;;;24.45;37.82
19510;BME280;9896;42.486;26.506;2022-07-11T08:19:09;99673.25;;;24.27;37.74
19510;BME280;9896;42.486;26.506;2022-07-11T08:21:36;99685.06;;;24.41;38.04
19510;BME280;9896;42.486;26.506;2022-07-11T08:24:03;99680.19;;;24.51;37.82
19510;BME280;9896;42.486;26.506;2022-07-11T08:26:29;99688.81;;;24.72;37.73
19510;BME280;9896;42.486;26.506;2022-07-11T08:28:55;99676.53;;;24.56;37.74
19510;BME280;9896;42.486;26.506;2022-07-11T08:31:22;99682.50;;;24.58;37.10
19510;BME280;9896;42.486;26.506;2022-07-11T08:33:48;99685.47;;;24.48;36.98
19510;BME280;9896;42.486;26.506;2022-07-11T08:36:13;99678.47;;;24.56;36.90
19510;BME280;9896;42.486;26.506;2022-07-11T08:38:39;99683.44;;;24.67;37.41
19510;BME280;9896;42.486;26.506;2022-07-11T08:41:10;99683.34;;;25.13;37.40
19510;BME280;9896;42.486;26.506;2022-07-11T08:43:36;99678.72;;;25.72;36.14
19510;BME280;9896;42.486;26.506;2022-07-11T08:46:01;99684.00;;;25.32;35.33
19510;BME280;9896;42.486;26.506;2022-07-11T08:48:27;99672.53;;;24.35;37.07
19510;BME280;9896;42.486;26.506;2022-07-11T08:50:55;99678.91;;;24.17;36.77
19510;BME280;9896;42.486;26.506;2022-07-11T08:53:20;99670.44;;;25.00;35.86
19510;BME280;9896;42.486;26.506;2022-07-11T08:55:46;99668.81;;;25.49;35.63
19510;BME280;9896;42.486;26.506;2022-07-11T08:58:13;99663.56;;;25.74;34.91
19510;BME280;9896;42.486;26.506;2022-07-11T09:00:38;99672.47;;;25.44;35.27
19510;BME280;9896;42.486;26.506;2022-07-11T09:03:12;99665.25;;;25.12;35.73
19510;BME280;9896;42.486;26.506;2022-07-11T09:05:38;99673.91;;;25.41;36.05
19510;BME280;9896;42.486;26.506;2022-07-11T09:08:04;99668.47;;;25.28;34.49
19510;BME280;9896;42.486;26.506;2022-07-11T09:10:30;99672.03;;;25.15;35.15
19510;BME280;9896;42.486;26.506;2022-07-11T09:13:00;99674.84;;;25.95;33.86
19510;BME280;9896;42.486;26.506;2022-07-11T09:15:33;99675.66;;;25.96;33.46
19510;BME280;9896;42.486;26.506;2022-07-11T09:17:59;99675.97;;;25.72;34.57
19510;BME280;9896;42.486;26.506;2022-07-11T09:20:25;99673.91;;;25.77;34.64
19510;BME280;9896;42.486;26.506;2022-07-11T09:22:51;99673.47;;;25.62;35.49
19510;BME280;9896;42.486;26.506;2022-07-11T09:25:42;99667.03;;;26.11;34.67
19510;BME280;9896;42.486;26.506;2022-07-11T09:28:08;99668.44;;;26.00;35.26
19510;BME280;9896;42.486;26.506;2022-07-11T09:30:38;99670.13;;;25.87;36.03
19510;BME280;9896;42.486;26.506;2022-07-11T09:33:10;99671.81;;;25.38;35.52
19510;BME280;9896;42.486;26.506;2022-07-11T09:35:38;99671.03;;;25.60;35.20
19510;BME280;9896;42.486;26.506;2022-07-11T09:38:05;99675.47;;;25.70;34.40
19510;BME280;9896;42.486;26.506;2022-07-11T09:40:30;99669.75;;;26.24;34.06
19510;BME280;9896;42.486;26.506;2022-07-11T09:42:57;99666.81;;;27.00;33.12
19510;BME280;9896;42.486;26.506;2022-07-11T09:45:26;99677.19;;;26.63;33.57
19510;BME280;9896;42.486;26.506;2022-07-11T09:47:54;99665.91;;;26.73;31.22
19510;BME280;9896;42.486;26.506;2022-07-11T09:50:28;99675.22;;;26.55;32.88
19510;BME280;9896;42.486;26.506;2022-07-11T09:53:05;99670.63;;;26.42;33.00
19510;BME280;9896;42.486;26.506;2022-07-11T09:55:32;99666.50;;;26.09;33.14
19510;BME280;9896;42.486;26.506;2022-07-11T09:57:58;99670.69;;;26.20;33.55
19510;BME280;9896;42.486;26.506;2022-07-11T10:00:24;99666.63;;;26.48;33.75
19510;BME280;9896;42.486;26.506;2022-07-11T10:02:52;99663.63;;;26.75;32.67
19510;BME280;9896;42.486;26.506;2022-07-11T10:05:18;99651.41;;;26.99;31.88
19510;BME280;9896;42.486;26.506;2022-07-11T10:07:43;99655.97;;;27.12;31.59
19510;BME280;9896;42.486;26.506;2022-07-11T10:10:09;99656.63;;;27.09;31.32
19510;BME280;9896;42.486;26.506;2022-07-11T10:12:35;99655.69;;;26.74;31.61
19510;BME280;9896;42.486;26.506;2022-07-11T10:15:10;99665.25;;;26.37;32.53
19510;BME280;9896;42.486;26.506;2022-07-11T10:17:54;99668.41;;;25.77;33.41
19510;BME280;9896;42.486;26.506;2022-07-11T10:20:34;99672.03;;;26.31;31.52
19510;BME280;9896;42.486;26.506;2022-07-11T10:28:33;99666.31;;;26.98;31.90
19510;BME280;9896;42.486;26.506;2022-07-11T10:31:01;99663.34;;;27.51;31.10
19510;BME280;9896;42.486;26.506;2022-07-11T10:33:28;99660.03;;;28.00;30.02
19510;BME280;9896;42.486;26.506;2022-07-11T10:35:55;99661.22;;;27.48;31.10
19510;BME280;9896;42.486;26.506;2022-07-11T10:38:22;99674.16;;;26.12;33.12
19510;BME280;9896;42.486;26.506;2022-07-11T10:48:52;99650.34;;;27.60;29.20
19510;BME280;9896;42.486;26.506;2022-07-11T10:51:28;99650.84;;;27.53;28.34
19510;BME280;9896;42.486;26.506;2022-07-11T10:57:09;99651.09;;;28.21;27.38
19510;BME280;9896;42.486;26.506;2022-07-11T11:02:19;99647.59;;;27.51;28.45
19510;BME280;9896;42.486;26.506;2022-07-11T11:04:50;99651.59;;;27.11;28.46
19510;BME280;9896;42.486;26.506;2022-07-11T11:09:58;99653.94;;;27.60;27.71
19510;BME280;9896;42.486;26.506;2022-07-11T11:15:44;99657.50;;;27.61;27.60
19510;BME280;9896;42.486;26.506;2022-07-11T11:26:48;99653.25;;;27.46;28.69
19510;BME280;9896;42.486;26.506;2022-07-11T11:29:25;99653.78;;;27.57;28.19
19510;BME280;9896;42.486;26.506;2022-07-11T11:31:58;99651.13;;;27.43;29.11
19510;BME280;9896;42.486;26.506;2022-07-11T11:34:25;99657.22;;;26.49;30.92
19510;BME280;9896;42.486;26.506;2022-07-11T11:37:09;99644.00;;;27.16;29.80
19510;BME280;9896;42.486;26.506;2022-07-11T11:39:37;99650.03;;;27.79;29.29
19510;BME280;9896;42.486;26.506;2022-07-11T11:42:09;99655.19;;;27.97;27.58
19510;BME280;9896;42.486;26.506;2022-07-11T11:44:47;99643.44;;;28.35;27.12
19510;BME280;9896;42.486;26.506;2022-07-11T11:47:14;99644.81;;;27.94;27.29
19510;BME280;9896;42.486;26.506;2022-07-11T11:49:41;99646.44;;;28.50;27.66
19510;BME280;9896;42.486;26.506;2022-07-11T11:52:07;99652.41;;;28.23;27.96
19510;BME280;9896;42.486;26.506;2022-07-11T11:54:32;99646.72;;;28.20;27.97
19510;BME280;9896;42.486;26.506;2022-07-11T11:57:13;99646.91;;;27.89;27.94
19510;BME280;9896;42.486;26.506;2022-07-11T11:59:41;99657.19;;;27.62;27.93
19510;BME280;9896;42.486;26.506;2022-07-11T12:02:08;99654.72;;;27.78;28.25
19510;BME280;9896;42.486;26.506;2022-07-11T12:04:35;99653.56;;;27.19;28.50
19510;BME280;9896;42.486;26.506;2022-07-11T12:07:03;99661.53;;;27.46;29.06
19510;BME280;9896;42.486;26.506;2022-07-11T12:09:29;99657.03;;;27.50;28.87
19510;BME280;9896;42.486;26.506;2022-07-11T12:12:20;99655.56;;;27.53;29.14
19510;BME280;9896;42.486;26.506;2022-07-11T12:15:06;99654.06;;;27.72;28.62
19510;BME280;9896;42.486;26.506;2022-07-11T12:17:32;99655.31;;;28.27;28.38
19510;BME280;9896;42.486;26.506;2022-07-11T12:19:58;99649.38;;;27.90;28.49
19510;BME280;9896;42.486;26.506;2022-07-11T12:22:23;99655.03;;;27.77;28.64
19510;BME280;9896;42.486;26.506;2022-07-11T12:24:52;99651.97;;;27.61;29.25
19510;BME280;9896;42.486;26.506;2022-07-11T12:27:19;99653.00;;;28.75;28.02
19510;BME280;9896;42.486;26.506;2022-07-11T12:29:45;99643.44;;;29.23;26.64
19510;BME280;9896;42.486;26.506;2022-07-11T12:32:16;99639.81;;;28.89;26.58
19510;BME280;9896;42.486;26.506;2022-07-11T12:34:44;99638.38;;;28.37;27.15
19510;BME280;9896;42.486;26.506;2022-07-11T12:39:46;99640.84;;;29.05;26.89
19510;BME280;9896;42.486;26.506;2022-07-11T12:42:44;99637.25;;;29.05;26.75
19510;BME280;9896;42.486;26.506;2022-07-11T12:45:13;99638.13;;;30.13;25.42
19510;BME280;9896;42.486;26.506;2022-07-11T12:47:42;99634.78;;;28.83;26.62
19510;BME280;9896;42.486;26.506;2022-07-11T12:50:27;99639.78;;;27.19;28.41
19510;BME280;9896;42.486;26.506;2022-07-11T12:52:58;99630.09;;;27.30;28.84
19510;BME280;9896;42.486;26.506;2022-07-11T12:55:33;99635.44;;;27.26;28.03
19510;BME280;9896;42.486;26.506;2022-07-11T12:58:11;99630.22;;;27.94;27.23
19510;BME280;9896;42.486;26.506;2022-07-11T13:00:54;99634.69;;;29.00;26.68
19510;BME280;9896;42.486;26.506;2022-07-11T13:03:32;99631.06;;;29.70;25.20
19510;BME280;9896;42.486;26.506;2022-07-11T13:05:58;99633.78;;;29.37;25.61
19510;BME280;9896;42.486;26.506;2022-07-11T13:08:30;99631.69;;;30.33;24.01
19510;BME280;9896;42.486;26.506;2022-07-11T13:11:18;99629.31;;;29.86;24.85
19510;BME280;9896;42.486;26.506;2022-07-11T13:13:50;99629.72;;;29.14;26.82
19510;BME280;9896;42.486;26.506;2022-07-11T13:16:17;99635.16;;;30.30;24.57
19510;BME280;9896;42.486;26.506;2022-07-11T13:18:43;99636.88;;;29.36;25.42
19510;BME280;9896;42.486;26.506;2022-07-11T13:21:08;99629.75;;;29.35;25.45
19510;BME280;9896;42.486;26.506;2022-07-11T13:23:35;99623.91;;;30.83;23.76
19510;BME280;9896;42.486;26.506;2022-07-11T13:26:01;99628.09;;;30.08;24.06
19510;BME280;9896;42.486;26.506;2022-07-11T13:28:27;99635.41;;;28.50;26.27
19510;BME280;9896;42.486;26.506;2022-07-11T13:30:53;99634.69;;;28.71;26.17
19510;BME280;9896;42.486;26.506;2022-07-11T13:33:19;99627.16;;;28.42;26.44
19510;BME280;9896;42.486;26.506;2022-07-11T13:35:46;99635.78;;;28.78;26.13
19510;BME280;9896;42.486;26.506;2022-07-11T13:38:14;99633.53;;;29.30;24.74